SAS105 ESSA-ESMS
Flight info
| Callsign | SAS105 |
|---|---|
| Flight time | N/A |
| Altitude | 38000 |
| Route | NOSLI N850 ABAMA DCT NEMBA N33 ETPIG P605 EKRAL |
| Aircraft | A20N/M-SDE2E3FGHIRWXY/LB1 |
Departure
| Time | 2026-05-04 18:51 |
|---|---|
| Airport | Stockholm-Arlanda Airport (ESSA) |
Arrival
| Time | N/A |
|---|---|
| Airport | Malmö Sturup Airport (ESMS) |
| Time | Latitude | Longitude | Altitude | Speed | Heading |
|---|---|---|---|---|---|
| 2026-05-04 18:19 | 59.65317 | 17.93568 | 111 ft | 0 kts | 76° |
| 2026-05-04 18:42 | 59.65314 | 17.93544 | 110 ft | 2 kts | 76° |
| 2026-05-04 18:42 | 59.65309 | 17.93512 | 111 ft | 2 kts | 75° |
| 2026-05-04 18:42 | 59.65305 | 17.93480 | 111 ft | 2 kts | 72° |
| 2026-05-04 18:43 | 59.65299 | 17.93449 | 108 ft | 2 kts | 62° |
| 2026-05-04 18:43 | 59.65288 | 17.93426 | 109 ft | 2 kts | 351° |
| 2026-05-04 18:43 | 59.65282 | 17.93428 | 110 ft | 0 kts | 346° |
| 2026-05-04 18:47 | 59.65301 | 17.93419 | 110 ft | 8 kts | 346° |
| 2026-05-04 18:47 | 59.65373 | 17.93382 | 111 ft | 13 kts | 345° |
| 2026-05-04 18:47 | 59.65463 | 17.93336 | 111 ft | 13 kts | 348° |
| 2026-05-04 18:47 | 59.65517 | 17.93241 | 111 ft | 11 kts | 262° |
| 2026-05-04 18:48 | 59.65503 | 17.93080 | 111 ft | 13 kts | 256° |
| 2026-05-04 18:48 | 59.65473 | 17.92905 | 109 ft | 14 kts | 250° |
| 2026-05-04 18:48 | 59.65435 | 17.92712 | 111 ft | 15 kts | 249° |
| 2026-05-04 18:48 | 59.65483 | 17.92571 | 106 ft | 16 kts | 327° |
| 2026-05-04 18:49 | 59.65600 | 17.92488 | 103 ft | 20 kts | 347° |
| 2026-05-04 18:49 | 59.65750 | 17.92423 | 103 ft | 22 kts | 356° |
| 2026-05-04 18:49 | 59.65848 | 17.92449 | 106 ft | 9 kts | 9° |
| 2026-05-04 18:49 | 59.65907 | 17.92387 | 109 ft | 12 kts | 301° |
| 2026-05-04 18:50 | 59.65920 | 17.92182 | 113 ft | 17 kts | 257° |
| 2026-05-04 18:50 | 59.65781 | 17.92071 | 110 ft | 43 kts | 188° |
| 2026-05-04 18:50 | 59.65181 | 17.91852 | 105 ft | 126 kts | 190° |
| 2026-05-04 18:50 | 59.64096 | 17.91465 | 168 ft | 181 kts | 192° |
| 2026-05-04 18:51 | 59.62858 | 17.90985 | 1069 ft | 180 kts | 196° |
| 2026-05-04 18:51 | 59.61584 | 17.90473 | 1860 ft | 199 kts | 198° |
| 2026-05-04 18:51 | 59.60166 | 17.89862 | 2580 ft | 215 kts | 206° |
| 2026-05-04 18:51 | 59.58985 | 17.88174 | 3559 ft | 208 kts | 239° |
| 2026-05-04 18:52 | 59.58464 | 17.85534 | 4486 ft | 218 kts | 261° |
| 2026-05-04 18:52 | 59.58211 | 17.82513 | 5482 ft | 224 kts | 261° |
| 2026-05-04 18:52 | 59.57849 | 17.79434 | 5933 ft | 240 kts | 256° |
| 2026-05-04 18:52 | 59.57241 | 17.76229 | 5628 ft | 254 kts | 244° |
| 2026-05-04 18:53 | 59.56121 | 17.73545 | 5345 ft | 256 kts | 224° |
| 2026-05-04 18:53 | 59.54584 | 17.71721 | 4976 ft | 259 kts | 210° |
| 2026-05-04 18:53 | 59.52966 | 17.70186 | 4680 ft | 258 kts | 211° |
| 2026-05-04 18:53 | 59.51337 | 17.68619 | 4737 ft | 261 kts | 211° |
| 2026-05-04 18:54 | 59.49708 | 17.67030 | 5347 ft | 263 kts | 211° |
| 2026-05-04 18:54 | 59.48054 | 17.65406 | 6434 ft | 263 kts | 211° |
| 2026-05-04 18:54 | 59.46406 | 17.63785 | 7433 ft | 265 kts | 211° |
| 2026-05-04 18:54 | 59.44753 | 17.62160 | 8401 ft | 269 kts | 211° |
| 2026-05-04 18:55 | 59.43074 | 17.60510 | 9395 ft | 272 kts | 211° |
| 2026-05-04 18:55 | 59.39661 | 17.57172 | 11345 ft | 272 kts | 212° |
| 2026-05-04 18:55 | 59.37970 | 17.55522 | 12294 ft | 273 kts | 212° |
| 2026-05-04 18:56 | 59.36280 | 17.53874 | 13220 ft | 275 kts | 213° |
| 2026-05-04 18:56 | 59.34536 | 17.52177 | 14078 ft | 277 kts | 213° |
| 2026-05-04 18:56 | 59.32790 | 17.50475 | 14807 ft | 281 kts | 214° |
| 2026-05-04 18:56 | 59.31032 | 17.48763 | 15570 ft | 285 kts | 214° |
| 2026-05-04 18:57 | 59.29210 | 17.46993 | 16340 ft | 288 kts | 214° |
| 2026-05-04 18:57 | 59.27405 | 17.45241 | 17086 ft | 292 kts | 215° |
| 2026-05-04 18:57 | 59.25559 | 17.43451 | 17838 ft | 295 kts | 215° |
| 2026-05-04 18:57 | 59.23713 | 17.41664 | 18509 ft | 298 kts | 215° |
| 2026-05-04 18:58 | 59.21859 | 17.39871 | 19168 ft | 300 kts | 215° |
| 2026-05-04 18:58 | 59.20601 | 17.38657 | 19602 ft | 302 kts | 215° |
| 2026-05-04 18:58 | 59.18694 | 17.36815 | 20254 ft | 305 kts | 215° |
| 2026-05-04 18:58 | 59.16762 | 17.34952 | 20902 ft | 307 kts | 215° |
| 2026-05-04 18:59 | 59.14856 | 17.33115 | 21515 ft | 310 kts | 215° |
| 2026-05-04 18:59 | 59.12893 | 17.31227 | 22176 ft | 313 kts | 215° |
| 2026-05-04 18:59 | 59.10930 | 17.29341 | 22781 ft | 316 kts | 215° |
| 2026-05-04 18:59 | 59.08951 | 17.27442 | 23377 ft | 318 kts | 216° |
| 2026-05-04 19:00 | 59.07052 | 17.25326 | 23864 ft | 314 kts | 222° |
| 2026-05-04 19:00 | 59.05311 | 17.22724 | 24358 ft | 312 kts | 227° |
| 2026-05-04 19:00 | 59.03632 | 17.19971 | 24836 ft | 315 kts | 227° |
| 2026-05-04 19:00 | 59.01958 | 17.17241 | 25311 ft | 318 kts | 227° |
| 2026-05-04 19:01 | 59.00238 | 17.14454 | 25789 ft | 321 kts | 227° |
| 2026-05-04 19:01 | 58.98513 | 17.11671 | 26249 ft | 323 kts | 226° |
| 2026-05-04 19:01 | 58.96770 | 17.08865 | 26705 ft | 326 kts | 226° |
| 2026-05-04 19:01 | 58.95031 | 17.06069 | 27152 ft | 328 kts | 226° |
| 2026-05-04 19:02 | 58.93259 | 17.03226 | 27589 ft | 331 kts | 226° |
| 2026-05-04 19:02 | 58.91491 | 17.00394 | 28014 ft | 333 kts | 226° |
| 2026-05-04 19:02 | 58.89683 | 16.97501 | 28442 ft | 336 kts | 226° |
| 2026-05-04 19:02 | 58.87725 | 16.94839 | 28656 ft | 351 kts | 217° |
| 2026-05-04 19:03 | 58.85566 | 16.92509 | 28754 ft | 362 kts | 216° |
| 2026-05-04 19:03 | 58.83292 | 16.90116 | 28856 ft | 372 kts | 215° |
| 2026-05-04 19:03 | 58.78652 | 16.85205 | 29032 ft | 392 kts | 215° |
| 2026-05-04 19:04 | 58.73745 | 16.80017 | 29270 ft | 407 kts | 215° |
| 2026-05-04 19:04 | 58.71235 | 16.77374 | 29647 ft | 409 kts | 214° |
| 2026-05-04 19:04 | 58.68709 | 16.74720 | 30002 ft | 411 kts | 214° |
| 2026-05-04 19:05 | 58.66211 | 16.72096 | 30292 ft | 414 kts | 214° |
| 2026-05-04 19:05 | 58.63652 | 16.69413 | 30598 ft | 417 kts | 214° |
| 2026-05-04 19:05 | 58.61093 | 16.66734 | 30921 ft | 418 kts | 214° |
| 2026-05-04 19:05 | 58.58549 | 16.64078 | 31302 ft | 419 kts | 214° |
| 2026-05-04 19:06 | 58.56002 | 16.61424 | 31701 ft | 418 kts | 214° |
| 2026-05-04 19:06 | 58.53419 | 16.58737 | 32082 ft | 418 kts | 214° |
| 2026-05-04 19:06 | 58.50848 | 16.56066 | 32450 ft | 418 kts | 214° |
| 2026-05-04 19:06 | 58.48272 | 16.53393 | 32829 ft | 418 kts | 214° |
| 2026-05-04 19:07 | 58.45733 | 16.50764 | 33193 ft | 418 kts | 214° |
| 2026-05-04 19:07 | 58.43172 | 16.48115 | 33546 ft | 417 kts | 214° |
| 2026-05-04 19:07 | 58.40593 | 16.45453 | 33873 ft | 417 kts | 214° |
| 2026-05-04 19:07 | 58.38032 | 16.42813 | 34135 ft | 418 kts | 214° |
| 2026-05-04 19:08 | 58.35462 | 16.40168 | 34395 ft | 418 kts | 214° |
| 2026-05-04 19:08 | 58.32890 | 16.37523 | 34634 ft | 419 kts | 214° |
| 2026-05-04 19:08 | 58.30351 | 16.34919 | 34880 ft | 419 kts | 214° |
| 2026-05-04 19:08 | 58.27763 | 16.32268 | 35125 ft | 420 kts | 214° |
| 2026-05-04 19:09 | 58.25169 | 16.29616 | 35354 ft | 420 kts | 214° |
| 2026-05-04 19:09 | 58.22617 | 16.27012 | 35570 ft | 421 kts | 214° |
| 2026-05-04 19:09 | 58.20010 | 16.24355 | 35799 ft | 421 kts | 214° |
| 2026-05-04 19:09 | 58.17451 | 16.21751 | 36014 ft | 422 kts | 214° |
| 2026-05-04 19:10 | 58.14851 | 16.19108 | 36243 ft | 422 kts | 214° |
| 2026-05-04 19:10 | 58.12250 | 16.16470 | 36451 ft | 422 kts | 213° |
| 2026-05-04 19:10 | 58.09669 | 16.13857 | 36648 ft | 423 kts | 213° |
| 2026-05-04 19:10 | 58.07047 | 16.11208 | 36856 ft | 423 kts | 213° |
| 2026-05-04 19:11 | 58.04451 | 16.08590 | 37041 ft | 424 kts | 213° |
| 2026-05-04 19:11 | 58.01829 | 16.05951 | 37260 ft | 424 kts | 213° |
| 2026-05-04 19:11 | 57.99235 | 16.03343 | 37442 ft | 424 kts | 213° |
| 2026-05-04 19:11 | 57.96639 | 16.00738 | 37625 ft | 424 kts | 213° |
| 2026-05-04 19:12 | 57.94031 | 15.98126 | 37802 ft | 425 kts | 213° |
| 2026-05-04 19:12 | 57.88829 | 15.92928 | 37804 ft | 424 kts | 213° |
| 2026-05-04 19:13 | 57.83607 | 15.87729 | 37811 ft | 424 kts | 213° |
| 2026-05-04 19:13 | 57.78359 | 15.82520 | 37812 ft | 424 kts | 213° |
| 2026-05-04 19:14 | 57.73113 | 15.77330 | 37815 ft | 424 kts | 212° |
| 2026-05-04 19:14 | 57.67895 | 15.72186 | 37821 ft | 425 kts | 212° |
| 2026-05-04 19:15 | 57.62636 | 15.67018 | 37826 ft | 425 kts | 212° |
| 2026-05-04 19:15 | 57.57393 | 15.61882 | 37834 ft | 425 kts | 212° |
| 2026-05-04 19:16 | 57.52177 | 15.56790 | 37833 ft | 425 kts | 212° |